Time;durP1;ratioP1;P1;durP2;ratioP2;P2;SDS_P1;SDS_P2;PMS_P1;PMS_P2;Temp;Humidity;BMP_temperature;BMP_pressure;BME280_temperature;BME280_humidity;BME280_pressure;Samples;Min_cycle;Max_cycle;Signal;HPM_P1;HPM_P2
2023/05/13 00:02:45;;;;;;;13.70;9.40;;;11.70;99.90;;;10.19;100.00;100494.81;10411158;28;97308;-90
2023/05/13 00:07:48;;;;;;;13.03;8.87;;;11.70;99.90;;;10.15;100.00;100485.50;10410660;27;96550;-90
2023/05/13 00:12:51;;;;;;;13.23;10.33;;;11.70;99.90;;;10.19;100.00;100497.47;10406330;28;97406;-91
2023/05/13 00:17:55;;;;;;;13.40;8.47;;;11.70;99.90;;;10.18;100.00;100495.81;10390583;28;96743;-91
2023/05/13 00:22:59;;;;;;;11.53;8.67;;;11.70;99.90;;;10.21;100.00;100500.81;10396231;28;96506;-91
2023/05/13 00:28:02;;;;;;;12.33;8.97;;;11.70;99.90;;;10.23;100.00;100495.34;10394327;28;96574;-91
2023/05/13 00:33:06;;;;;;;13.83;9.00;;;11.70;99.90;;;10.23;100.00;100490.88;10408434;28;96628;-91
2023/05/13 00:38:09;;;;;;;14.77;9.43;;;11.70;99.90;;;10.22;100.00;100493.69;10407869;28;96595;-91
2023/05/13 00:43:12;;;;;;;9.70;7.10;;;11.70;99.90;;;10.23;100.00;100501.50;10408766;28;96514;-91
2023/05/13 00:48:16;;;;;;;12.37;8.27;;;11.80;99.90;;;10.22;100.00;100499.00;10393616;28;96897;-92
2023/05/13 00:53:19;;;;;;;9.77;7.83;;;11.70;99.90;;;10.20;100.00;100504.47;10385447;28;96945;-92
2023/05/13 00:58:22;;;;;;;10.20;7.80;;;11.70;99.90;;;10.13;100.00;100504.22;10394938;28;98376;-91
2023/05/13 01:03:39;;;;;;;12.60;7.83;;;11.70;99.90;;;10.10;100.00;100501.91;10400895;28;96680;-92
2023/05/13 01:09:08;;;;;;;8.70;6.70;;;11.60;99.90;;;10.11;100.00;100506.22;10393019;28;98497;-92
2023/05/13 01:14:18;;;;;;;10.23;8.20;;;11.60;99.90;;;10.07;100.00;100507.53;10405934;28;96923;-91
2023/05/13 01:19:48;;;;;;;10.33;7.97;;;11.60;99.90;;;10.05;100.00;100511.34;10408163;28;96637;-92
2023/05/13 01:24:51;;;;;;;13.20;10.20;;;11.50;99.90;;;10.04;100.00;100512.31;10409603;28;96472;-91
2023/05/13 01:29:55;;;;;;;11.73;8.70;;;11.50;99.90;;;10.04;100.00;100504.38;10405001;28;97195;-91
2023/05/13 01:35:00;;;;;;;12.57;8.97;;;11.60;99.90;;;10.06;100.00;100520.97;10413929;28;96753;-90
2023/05/13 01:40:07;;;;;;;10.33;7.70;;;11.50;99.90;;;10.02;100.00;100522.28;10455347;28;96674;-90
2023/05/13 01:45:32;;;;;;;9.40;6.97;;;11.50;99.90;;;9.98;100.00;100515.59;10431040;28;96624;-89
2023/05/13 01:50:35;;;;;;;10.77;7.77;;;11.50;99.90;;;9.88;100.00;100511.22;10405567;28;98018;-90
2023/05/13 01:55:38;;;;;;;8.97;6.60;;;11.50;99.90;;;9.86;100.00;100526.47;10371735;28;96878;-91
2023/05/13 02:00:41;;;;;;;11.93;8.33;;;11.40;99.90;;;9.78;100.00;100523.78;10405831;28;96604;-91
2023/05/13 02:05:47;;;;;;;11.13;8.20;;;11.40;99.90;;;9.81;100.00;100528.75;10423873;27;96504;-92
2023/05/13 02:10:57;;;;;;;9.17;7.13;;;11.30;99.90;;;9.79;100.00;100530.75;10406779;28;96670;-90
2023/05/13 02:16:02;;;;;;;9.73;7.63;;;11.30;99.90;;;9.78;100.00;100526.44;10377678;28;96891;-91
2023/05/13 02:21:05;;;;;;;9.77;7.03;;;11.30;99.90;;;9.80;100.00;100524.44;10406972;28;96531;-90
2023/05/13 02:26:08;;;;;;;10.43;7.57;;;11.30;99.90;;;9.76;100.00;100523.06;10405140;28;98184;-91
2023/05/13 02:31:11;;;;;;;13.33;9.20;;;11.30;99.90;;;9.75;100.00;100526.72;10421910;27;96695;-91
2023/05/13 02:36:14;;;;;;;8.63;7.37;;;11.30;99.90;;;9.68;100.00;100520.38;10408559;28;97485;-91
2023/05/13 02:41:17;;;;;;;11.53;7.83;;;11.30;99.90;;;9.67;100.00;100524.03;10404102;28;96699;-92
2023/05/13 02:46:22;;;;;;;11.63;8.10;;;11.20;99.90;;;9.64;100.00;100524.31;10419768;27;96616;-91
2023/05/13 02:51:25;;;;;;;8.90;6.73;;;11.20;99.90;;;9.63;100.00;100527.97;10406065;28;97423;-91
2023/05/13 02:56:28;;;;;;;10.33;7.47;;;11.20;99.90;;;9.57;100.00;100528.56;10401301;28;96546;-91
2023/05/13 03:01:31;;;;;;;10.73;7.90;;;11.10;99.90;;;9.53;100.00;100533.34;10404379;28;96673;-91
2023/05/13 03:06:34;;;;;;;9.97;7.80;;;11.10;99.90;;;9.44;100.00;100528.13;10405887;28;96688;-91
2023/05/13 03:11:37;;;;;;;9.97;6.93;;;11.00;99.90;;;9.38;100.00;100519.78;10389031;28;96670;-91
2023/05/13 03:16:43;;;;;;;8.13;6.03;;;10.90;99.90;;;9.43;100.00;100534.44;10403188;28;97450;-90
2023/05/13 03:21:46;;;;;;;9.73;7.33;;;10.90;99.90;;;9.44;100.00;100528.13;10421660;28;96540;-90
2023/05/13 03:26:49;;;;;;;8.13;6.10;;;11.00;99.90;;;9.43;100.00;100537.91;10403946;28;96588;-91
2023/05/13 03:31:53;;;;;;;6.83;5.67;;;11.00;99.90;;;9.39;100.00;100542.69;10402110;28;96943;-92
2023/05/13 03:36:56;;;;;;;10.77;7.20;;;10.90;99.90;;;9.34;100.00;100549.41;10405927;28;96653;-91
2023/05/13 03:41:59;;;;;;;9.67;7.30;;;10.90;99.90;;;9.30;100.00;100551.56;10403208;28;96951;-92
2023/05/13 03:47:02;;;;;;;11.13;7.17;;;10.90;99.90;;;9.26;100.00;100552.00;10417953;28;97969;-91
2023/05/13 03:52:08;;;;;;;8.47;7.00;;;10.80;99.90;;;9.24;100.00;100560.13;10387341;28;97947;-91
2023/05/13 03:57:11;;;;;;;9.70;6.90;;;10.80;99.90;;;9.21;100.00;100564.88;10404802;28;96483;-92
2023/05/13 04:02:15;;;;;;;9.73;6.87;;;10.80;99.90;;;9.21;100.00;100567.53;10419205;28;98468;-91
2023/05/13 04:07:18;;;;;;;10.97;7.73;;;10.70;99.90;;;9.23;100.00;100579.63;10403511;28;96645;-91
2023/05/13 04:12:21;;;;;;;9.00;6.50;;;10.80;99.90;;;9.25;100.00;100580.34;10400911;28;96631;-90
2023/05/13 04:17:24;;;;;;;11.40;7.67;;;10.80;99.90;;;9.25;100.00;100579.50;10401391;28;96483;-90
2023/05/13 04:22:27;;;;;;;8.87;6.73;;;10.80;99.90;;;9.26;100.00;100579.34;10400585;28;96694;-90
2023/05/13 04:27:30;;;;;;;9.77;7.17;;;10.80;99.90;;;9.29;100.00;100594.13;10385427;28;97330;-90
2023/05/13 04:32:33;;;;;;;8.47;7.07;;;10.90;99.90;;;9.34;100.00;100595.34;10399138;28;97240;-91
2023/05/13 04:37:37;;;;;;;10.43;7.33;;;10.90;99.90;;;9.35;100.00;100598.81;10376171;28;96529;-91
2023/05/13 04:42:40;;;;;;;8.57;6.50;;;10.90;99.90;;;9.35;100.00;100594.34;10418496;28;97286;-92
2023/05/13 04:47:43;;;;;;;15.00;8.60;;;10.90;99.90;;;9.39;100.00;100595.72;10391596;28;97074;-91
2023/05/13 04:52:46;;;;;;;13.50;9.10;;;11.00;99.90;;;9.45;100.00;100604.06;10426247;28;96662;-91
2023/05/13 04:57:49;;;;;;;11.93;8.30;;;11.00;99.90;;;9.49;100.00;100605.44;10393455;28;96550;-91
2023/05/13 05:02:52;;;;;;;9.83;7.37;;;11.10;99.90;;;9.53;100.00;100612.09;10419656;28;97206;-92
2023/05/13 05:07:55;;;;;;;8.97;6.50;;;11.10;99.90;;;9.54;100.00;100603.19;10411345;28;97735;-92
2023/05/13 05:12:58;;;;;;;11.40;8.23;;;11.10;99.90;;;9.54;100.00;100603.19;10392505;28;96524;-92
2023/05/13 05:18:01;;;;;;;10.33;8.23;;;11.20;99.90;;;9.62;100.00;100617.34;10407944;28;96541;-89
2023/05/13 05:23:05;;;;;;;8.37;6.60;;;11.20;99.90;;;9.64;100.00;100623.31;10387556;28;96892;-90
2023/05/13 05:28:08;;;;;;;10.60;8.43;;;11.20;99.90;;;9.62;100.00;100620.00;10403758;28;96715;-90
2023/05/13 05:33:12;;;;;;;10.10;7.30;;;11.20;99.90;;;9.66;100.00;100623.19;10383343;28;97073;-92
2023/05/13 05:38:15;;;;;;;10.80;7.90;;;11.30;99.90;;;9.69;100.00;100625.53;10420153;27;96722;-93
2023/05/13 05:43:18;;;;;;;16.27;10.90;;;11.30;99.90;;;9.63;100.00;100620.81;10410788;28;96614;-92
2023/05/13 05:48:21;;;;;;;18.07;13.87;;;11.20;99.90;;;9.63;100.00;100626.97;10413003;27;96979;-89
2023/05/13 05:53:25;;;;;;;13.60;9.13;;;11.20;99.90;;;9.65;100.00;100627.66;10385514;28;98572;-89
2023/05/13 05:58:28;;;;;;;11.77;8.63;;;11.30;99.90;;;9.62;100.00;100622.66;10400663;28;96972;-90
2023/05/13 06:03:31;;;;;;;13.73;9.70;;;11.30;99.90;;;9.64;100.00;100627.81;10402556;28;96679;-91
2023/05/13 06:08:34;;;;;;;12.50;9.23;;;11.30;99.90;;;9.53;100.00;100623.53;10405551;28;96503;-90
2023/05/13 06:13:37;;;;;;;13.50;9.07;;;11.20;99.90;;;9.46;100.00;100626.94;10371973;28;96513;-89
2023/05/13 06:18:41;;;;;;;13.43;9.67;;;11.10;99.90;;;9.45;100.00;100634.09;10389144;28;97395;-89
2023/05/13 06:23:45;;;;;;;19.00;13.40;;;11.10;99.90;;;9.42;100.00;100637.03;10399264;27;96925;-92
2023/05/13 06:28:48;;;;;;;11.80;9.80;;;11.00;99.90;;;9.40;100.00;100649.59;10390335;27;96920;-90
2023/05/13 06:33:51;;;;;;;14.67;10.10;;;11.00;99.90;;;9.32;100.00;100650.34;10377448;28;96837;-90
2023/05/13 06:38:54;;;;;;;20.40;13.90;;;11.00;99.90;;;9.28;100.00;100656.94;10396848;28;96707;-92
2023/05/13 06:43:57;;;;;;;15.30;8.80;;;10.90;99.90;;;9.26;100.00;100661.56;10392302;28;97729;-91
2023/05/13 06:49:00;;;;;;;10.57;8.80;;;10.90;99.90;;;9.23;100.00;100661.84;10417725;27;97526;-91
2023/05/13 06:54:03;;;;;;;17.17;14.20;;;10.80;99.90;;;9.24;100.00;100660.06;10399981;28;96946;-90
2023/05/13 06:59:06;;;;;;;16.20;8.83;;;10.80;99.90;;;9.26;100.00;100656.25;10382649;27;97472;-91
2023/05/13 07:04:09;;;;;;;14.30;10.07;;;10.80;99.90;;;9.20;100.00;100659.50;10395294;28;97200;-91
2023/05/13 07:09:13;;;;;;;13.13;9.87;;;10.80;99.90;;;9.16;100.00;100658.13;10383334;28;96781;-92
2023/05/13 07:14:16;;;;;;;14.67;10.80;;;10.80;99.90;;;9.22;100.00;100664.66;10396687;28;96667;-91
2023/05/13 07:19:19;;;;;;;12.83;9.07;;;10.80;99.90;;;9.22;100.00;100660.19;10400352;28;96973;-93
2023/05/13 07:24:23;;;;;;;10.50;7.17;;;10.80;99.90;;;9.23;100.00;100656.53;10406906;28;96987;-92
2023/05/13 07:29:26;;;;;;;7.40;6.33;;;10.80;99.90;;;9.23;100.00;100663.66;10414052;28;97685;-92
2023/05/13 07:34:30;;;;;;;9.67;6.73;;;10.80;99.90;;;9.26;100.00;100661.56;10393156;28;96696;-94
2023/05/13 07:39:33;;;;;;;9.47;6.33;;;10.80;99.90;;;9.26;100.00;100664.22;10392411;28;97378;-90
2023/05/13 07:44:35;;;;;;;8.10;6.60;;;10.80;99.90;;;9.29;100.00;100666.56;10377188;28;97447;-92
2023/05/13 07:49:39;;;;;;;13.97;10.70;;;10.90;99.90;;;9.38;100.00;100670.97;10411599;28;98533;-91
2023/05/13 07:54:42;;;;;;;10.20;8.30;;;11.00;99.90;;;9.39;100.00;100670.00;10389331;28;99182;-91
2023/05/13 07:59:45;;;;;;;9.30;6.80;;;11.00;99.90;;;9.51;100.00;100677.75;10407579;28;97868;-91
2023/05/13 08:04:48;;;;;;;13.13;6.97;;;11.00;99.90;;;9.53;100.00;100686.38;10404201;28;96753;-90
2023/05/13 08:09:51;;;;;;;7.90;6.13;;;11.10;99.90;;;9.50;100.00;100689.34;10390343;27;97039;-90
2023/05/13 08:14:54;;;;;;;8.03;5.87;;;11.10;99.90;;;9.48;100.00;100688.69;10419010;27;98265;-90
2023/05/13 08:19:57;;;;;;;9.20;5.97;;;11.10;99.90;;;9.53;100.00;100697.00;10396991;28;96965;-91
2023/05/13 08:25:02;;;;;;;8.00;5.73;;;11.10;99.90;;;9.52;100.00;100705.94;10404731;28;96988;-91
2023/05/13 08:30:06;;;;;;;8.13;5.53;;;11.10;99.90;;;9.46;100.00;100696.75;10419815;27;99770;-93
2023/05/13 08:35:09;;;;;;;8.50;6.10;;;11.10;99.90;;;9.45;100.00;100716.31;10401266;28;96670;-92
2023/05/13 08:40:12;;;;;;;6.57;5.60;;;11.00;99.90;;;9.47;100.00;100722.28;10396328;27;97971;-92
2023/05/13 08:45:20;;;;;;;6.83;5.17;;;11.00;99.90;;;9.50;100.00;100715.88;10390520;28;97522;-93
2023/05/13 08:50:25;;;;;;;9.93;6.07;;;11.10;99.90;;;9.50;100.00;100722.00;10418969;28;96751;-89
2023/05/13 08:55:28;;;;;;;7.93;5.40;;;11.10;99.90;;;9.56;100.00;100716.13;10426541;27;97144;-90
2023/05/13 09:00:33;;;;;;;7.37;5.33;;;11.20;99.90;;;9.70;100.00;100728.03;10422413;28;96982;-91
2023/05/13 09:05:36;;;;;;;7.90;5.40;;;11.30;99.90;;;9.76;100.00;100716.81;10409306;28;96457;-90
2023/05/13 09:10:41;;;;;;;10.13;5.60;;;11.40;99.90;;;9.81;100.00;100708.41;10406972;28;96449;-89
2023/05/13 09:15:44;;;;;;;7.03;5.53;;;11.40;99.90;;;9.82;99.15;100710.91;10383444;27;97078;-90
2023/05/13 09:20:47;;;;;;;9.53;6.90;;;11.50;99.90;;;9.89;100.00;100713.78;10394714;27;96903;-89
2023/05/13 09:25:50;;;;;;;9.00;7.10;;;11.50;99.90;;;9.92;99.73;100718.81;10422726;28;97570;-90
2023/05/13 09:30:55;;;;;;;10.37;5.20;;;11.50;99.90;;;9.93;98.02;100713.34;10400966;28;97337;-90
2023/05/13 09:35:59;;;;;;;7.33;5.10;;;11.60;99.90;;;9.94;98.25;100714.19;10438926;27;96440;-90
2023/05/13 09:41:02;;;;;;;7.27;5.37;;;11.60;99.90;;;10.01;98.97;100720.56;10404835;28;97387;-90
2023/05/13 09:46:09;;;;;;;8.37;5.20;;;11.60;99.90;;;10.10;99.34;100713.50;10400363;28;98158;-90
2023/05/13 09:51:14;;;;;;;6.37;5.33;;;11.70;99.90;;;10.20;98.94;100716.94;10421876;27;97123;-90
2023/05/13 09:56:22;;;;;;;6.37;5.00;;;11.80;99.90;;;10.30;96.88;100716.88;10392534;28;97766;-89
2023/05/13 10:01:27;;;;;;;6.37;4.90;;;11.90;99.90;;;10.42;96.41;100708.50;10427941;28;96634;-89
2023/05/13 10:06:30;;;;;;;8.30;5.37;;;12.10;99.90;;;10.59;96.24;100704.13;10411030;28;96674;-89
2023/05/13 10:11:35;;;;;;;6.43;4.73;;;12.20;99.90;;;10.81;97.88;100709.94;10390933;28;96960;-89
2023/05/13 10:16:38;;;;;;;7.60;5.00;;;12.40;99.90;;;10.93;96.63;100706.03;10435597;27;98799;-89
2023/05/13 10:21:41;;;;;;;7.60;5.13;;;12.60;99.90;;;10.97;93.47;100704.69;10422472;27;98466;-90
2023/05/13 10:26:47;;;;;;;14.07;7.40;;;12.60;99.90;;;11.06;93.30;100692.28;10419278;28;96659;-90
2023/05/13 10:31:50;;;;;;;8.13;5.10;;;12.70;99.90;;;11.14;92.66;100695.81;10405801;28;96587;-90
2023/05/13 10:37:16;;;;;;;6.47;4.93;;;12.80;99.90;;;11.27;92.30;100700.69;10416544;27;97944;-90
2023/05/13 10:42:39;;;;;;;8.77;5.23;;;12.90;99.90;;;11.45;91.69;100688.09;10422611;27;96671;-90
2023/05/13 10:47:42;;;;;;;6.17;4.70;;;13.00;99.90;;;11.71;90.80;100687.19;10406584;28;96513;-90
2023/05/13 10:52:46;;;;;;;7.13;4.63;;;13.40;99.90;;;11.94;89.36;100692.78;10404771;28;97621;-90
2023/05/13 10:58:11;;;;;;;8.03;5.40;;;13.60;99.90;;;12.04;87.70;100690.75;10417874;28;98376;-90
2023/05/13 11:03:27;;;;;;;5.30;4.20;;;13.70;99.90;;;12.01;86.04;100689.28;10418197;28;96624;-89
2023/05/13 11:08:47;;;;;;;6.50;4.70;;;13.70;99.90;;;12.13;86.07;100687.13;10420258;28;96560;-89
2023/05/13 11:14:01;;;;;;;5.47;3.92;;;13.80;99.90;;;12.22;88.38;100693.25;10386151;28;96579;-89
2023/05/13 11:19:20;;;;;;;7.93;4.57;;;13.90;99.90;;;12.11;84.67;100690.94;10402661;28;96527;-90
2023/05/13 11:24:25;;;;;;;5.13;4.50;;;13.90;99.90;;;11.97;84.63;100693.25;10397755;28;98476;-89
2023/05/13 11:29:33;;;;;;;7.10;5.00;;;13.70;99.90;;;11.88;85.50;100688.94;10397181;27;98626;-89
2023/05/13 11:34:36;;;;;;;5.97;4.90;;;13.60;99.90;;;11.83;85.53;100680.59;10378449;28;98271;-89
2023/05/13 11:39:40;;;;;;;6.50;4.90;;;13.50;99.90;;;11.91;87.33;100685.91;10409148;28;98214;-89
2023/05/13 11:44:45;;;;;;;7.03;4.70;;;13.60;99.90;;;12.02;85.13;100682.94;10403202;27;96553;-89
2023/05/13 11:49:50;;;;;;;5.43;4.20;;;13.70;99.90;;;12.19;85.44;100689.13;10423321;28;98063;-89
2023/05/13 11:54:56;;;;;;;6.65;4.47;;;13.90;99.90;;;12.45;88.27;100688.09;10425362;28;96592;-89
2023/05/13 12:00:05;;;;;;;5.60;4.57;;;14.10;99.90;;;12.63;83.60;100679.91;10407282;28;96828;-90
2023/05/13 12:05:16;;;;;;;6.10;5.20;;;14.40;99.90;;;12.63;84.26;100671.91;10409153;28;97437;-89
2023/05/13 12:10:20;;;;;;;6.18;4.40;;;14.40;99.90;;;12.57;82.97;100674.25;10414786;28;96645;-90
2023/05/13 12:15:23;;;;;;;7.80;4.45;;;14.40;99.90;;;12.56;83.35;100683.25;10401294;28;96659;-90
2023/05/13 12:20:26;;;;;;;7.70;5.30;;;14.30;99.90;;;12.50;82.97;100673.28;10395897;28;98404;-89
2023/05/13 12:25:41;;;;;;;7.95;5.50;;;14.30;99.90;;;12.49;83.09;100682.28;10392403;28;96680;-88
2023/05/13 12:30:55;;;;;;;7.30;5.30;;;14.20;99.90;;;12.44;83.21;100692.59;10422840;27;96647;-89
2023/05/13 12:36:21;;;;;;;6.55;4.50;;;14.20;99.90;;;12.42;83.49;100686.63;10424510;27;96684;-89
2023/05/13 12:41:33;;;;;;;7.38;5.20;;;14.10;99.90;;;12.47;86.47;100692.25;10438848;27;96676;-89
2023/05/13 12:46:36;;;;;;;14.87;8.53;;;14.20;99.90;;;12.50;86.38;100699.09;10421368;27;98164;-89
2023/05/13 12:51:39;;;;;;;13.20;7.50;;;14.20;99.90;;;12.42;84.85;100686.63;10424913;28;96632;-89
2023/05/13 12:56:43;;;;;;;8.95;6.20;;;14.10;99.90;;;12.43;83.92;100692.78;10440924;27;96596;-89
2023/05/13 13:01:48;;;;;;;9.25;5.20;;;14.10;99.90;;;12.45;84.76;100691.59;10401384;28;96563;-89
2023/05/13 13:06:52;;;;;;;8.23;5.15;;;14.10;99.90;;;12.56;85.32;100695.75;10424330;27;96698;-90
2023/05/13 13:11:55;;;;;;;6.70;4.70;;;14.20;99.90;;;12.62;83.76;100688.91;10423392;27;97183;-90
2023/05/13 13:16:58;;;;;;;8.95;4.25;;;14.30;99.90;;;12.66;82.50;100682.25;10406405;28;98055;-89
2023/05/13 13:22:01;;;;;;;8.38;4.72;;;14.40;99.90;;;12.70;81.80;100688.91;10395055;28;97060;-89
2023/05/13 13:27:04;;;;;;;7.40;4.80;;;14.40;99.90;;;12.70;82.86;100678.22;10405547;28;98106;-89
2023/05/13 13:32:07;;;;;;;9.32;4.95;;;14.40;99.90;;;12.70;82.27;100686.22;10403404;27;98268;-90
2023/05/13 13:37:10;;;;;;;9.65;5.03;;;14.40;99.90;;;12.68;81.79;100675.75;10440054;27;96981;-90
2023/05/13 13:42:13;;;;;;;9.40;6.75;;;14.30;99.90;;;12.70;83.54;100670.22;10421954;28;97614;-90
2023/05/13 13:47:16;;;;;;;8.10;5.88;;;14.40;99.90;;;12.81;84.41;100675.22;10420699;28;97308;-89
2023/05/13 13:52:21;;;;;;;7.60;5.55;;;14.50;99.90;;;12.86;83.66;100675.53;10403494;28;96605;-93
2023/05/13 13:57:24;;;;;;;18.23;10.75;;;14.60;99.90;;;12.95;86.32;100677.16;10417895;27;97601;-89
2023/05/13 14:02:27;;;;;;;12.77;6.70;;;14.60;99.90;;;13.01;85.44;100676.47;10411435;28;96674;-90
2023/05/13 14:07:30;;;;;;;16.75;7.88;;;14.70;99.90;;;13.03;86.12;100668.31;10404228;27;96917;-90
2023/05/13 14:12:35;;;;;;;8.38;4.65;;;14.70;99.90;;;13.03;80.81;100668.31;10404805;28;96738;-89
2023/05/13 14:17:38;;;;;;;6.68;4.25;;;14.70;99.90;;;13.02;80.71;100664.81;10385391;28;96569;-87
2023/05/13 14:22:41;;;;;;;8.02;4.72;;;14.70;99.90;;;13.03;78.34;100658.47;10396036;28;98125;-91
2023/05/13 14:27:44;;;;;;;7.80;4.63;;;14.70;99.90;;;13.04;81.89;100646.78;10408906;27;97313;-92
2023/05/13 14:32:47;;;;;;;10.32;6.13;;;14.80;99.90;;;13.11;79.82;100641.59;10413777;28;96592;-90
2023/05/13 14:37:50;;;;;;;6.97;4.25;;;14.80;99.90;;;13.20;77.88;100639.72;10422886;27;97103;-90
2023/05/13 14:42:53;;;;;;;8.88;4.38;;;14.90;99.90;;;13.25;80.34;100629.38;10378951;28;97358;-91
2023/05/13 14:47:56;;;;;;;8.18;4.10;;;15.00;99.90;;;13.34;79.63;100631.84;10412466;27;96618;-91
2023/05/13 14:52:59;;;;;;;8.15;3.58;;;15.10;99.90;;;13.37;76.56;100627.97;10382283;27;97356;-89
2023/05/13 14:58:02;;;;;;;7.85;4.18;;;15.20;99.90;;;13.37;76.71;100625.31;10420233;28;96749;-90
2023/05/13 15:03:05;;;;;;;6.30;4.63;;;15.10;99.90;;;13.36;77.70;100635.16;10420747;28;96596;-90
2023/05/13 15:08:08;;;;;;;6.20;4.60;;;15.20;99.90;;;13.42;81.43;100630.13;10421456;27;96444;-89
2023/05/13 15:13:11;;;;;;;5.82;3.72;;;15.20;99.90;;;13.43;77.00;100627.25;10404810;28;96459;-89
2023/05/13 15:18:14;;;;;;;8.95;4.75;;;15.20;99.90;;;13.43;80.75;100637.94;10375588;28;99012;-88
2023/05/13 15:23:17;;;;;;;11.30;9.38;;;15.20;99.90;;;13.37;77.86;100625.31;10412467;27;96737;-89
2023/05/13 15:28:20;;;;;;;8.23;4.68;;;15.20;99.90;;;13.34;78.88;100634.50;10416591;27;97866;-89
2023/05/13 15:33:25;;;;;;;15.15;9.45;;;15.10;99.90;;;13.26;77.21;100631.06;10408979;27;96960;-89
2023/05/13 15:38:28;;;;;;;17.20;11.60;;;15.10;99.90;;;13.27;77.27;100638.88;10386138;28;96850;-89
2023/05/13 15:43:31;;;;;;;34.92;21.40;;;15.10;99.90;;;13.23;78.41;100636.72;10413629;27;96666;-88
2023/05/13 15:48:35;;;;;;;11.13;8.05;;;15.00;99.90;;;13.21;80.04;100638.75;10381466;28;97808;-90
2023/05/13 15:53:38;;;;;;;7.97;5.80;;;15.00;99.90;;;13.21;83.82;100636.09;10385906;28;96640;-89
2023/05/13 15:58:42;;;;;;;7.82;5.47;;;14.90;99.90;;;13.12;81.92;100622.72;10401887;28;96649;-89
2023/05/13 16:03:44;;;;;;;7.85;4.35;;;14.90;99.90;;;13.15;83.63;100626.06;10391009;28;98949;-89
2023/05/13 16:08:47;;;;;;;5.28;3.95;;;14.90;99.90;;;13.08;79.64;100640.13;10401098;28;97528;-90
2023/05/13 16:13:51;;;;;;;5.47;4.22;;;14.80;99.90;;;13.04;81.54;100646.78;10398675;28;98604;-89
2023/05/13 16:18:54;;;;;;;9.18;5.93;;;14.80;99.90;;;12.99;80.07;100651.81;10399099;28;98885;-88
2023/05/13 16:23:57;;;;;;;10.48;6.45;;;14.70;99.90;;;12.96;83.51;100638.00;10401476;28;96479;-89
2023/05/13 16:29:00;;;;;;;5.55;4.25;;;14.70;99.90;;;12.96;83.20;100630.81;10389186;27;98507;-88
2023/05/13 16:34:03;;;;;;;7.68;6.43;;;14.70;99.90;;;12.95;84.54;100629.13;10419631;27;96544;-87
2023/05/13 16:39:06;;;;;;;8.20;5.80;;;14.70;99.90;;;12.98;86.39;100623.47;10412010;28;97409;-89
2023/05/13 16:44:10;;;;;;;10.43;6.25;;;14.70;99.90;;;13.02;86.18;100619.47;10406385;28;96707;-89
2023/05/13 16:49:12;;;;;;;7.18;5.35;;;14.70;99.90;;;13.03;84.81;100614.97;10391266;28;97358;-88
2023/05/13 16:54:16;;;;;;;6.85;4.93;;;14.80;99.90;;;13.06;86.53;100617.25;10415902;27;98617;-88
2023/05/13 16:59:21;;;;;;;7.78;4.63;;;14.80;99.90;;;13.03;81.21;100613.13;10406365;28;97331;-87
2023/05/13 17:04:25;;;;;;;6.03;4.70;;;14.80;99.90;;;13.02;83.60;100610.63;10407938;28;97819;-87
2023/05/13 17:09:29;;;;;;;6.72;4.65;;;14.70;99.90;;;13.03;83.58;100607.78;10412062;28;97238;-87
2023/05/13 17:14:32;;;;;;;5.72;4.50;;;14.80;99.90;;;13.05;84.82;100612.94;10379977;28;98519;-87
2023/05/13 17:19:35;;;;;;;6.43;4.45;;;14.80;99.90;;;13.04;83.58;100616.63;10401880;28;97662;-87
2023/05/13 17:24:39;;;;;;;11.40;7.25;;;14.80;99.90;;;13.04;87.11;100629.94;10406346;28;96417;-87
2023/05/13 17:29:42;;;;;;;17.38;9.95;;;14.80;99.90;;;13.03;87.70;100634.47;10403037;28;97388;-87
2023/05/13 17:34:45;;;;;;;19.05;11.98;;;14.80;99.90;;;13.03;89.25;100629.13;10382398;28;96985;-88
2023/05/13 17:39:49;;;;;;;15.55;9.32;;;14.80;99.90;;;12.96;84.22;100614.00;10437969;27;96597;-88
2023/05/13 17:44:53;;;;;;;31.63;17.10;;;14.70;99.90;;;12.91;84.57;100609.16;10403232;28;97198;-87
2023/05/13 17:49:56;;;;;;;23.92;12.93;;;14.70;99.90;;;12.90;87.07;100612.84;10385508;28;97489;-88
2023/05/13 17:54:59;;;;;;;15.40;9.70;;;14.60;99.90;;;12.86;86.68;100614.19;10393868;28;96403;-89
2023/05/13 18:00:05;;;;;;;12.57;8.25;;;14.60;99.90;;;12.78;84.55;100623.06;10433472;27;96868;-90
2023/05/13 18:05:13;;;;;;;12.02;6.40;;;14.50;99.90;;;12.75;85.85;100617.22;10414364;28;97117;-89
2023/05/13 18:10:16;;;;;;;10.68;6.70;;;14.50;99.90;;;12.67;86.59;100619.91;10430647;28;97201;-92
2023/05/13 18:15:20;;;;;;;8.53;6.43;;;14.40;99.90;;;12.59;86.12;100626.94;10398078;28;96846;-91
2023/05/13 18:20:23;;;;;;;10.07;6.90;;;14.30;99.90;;;12.52;87.80;100627.78;10427226;28;96422;-88
2023/05/13 18:25:26;;;;;;;8.27;5.47;;;14.20;99.90;;;12.48;89.34;100616.63;10393680;28;96402;-89
2023/05/13 18:30:29;;;;;;;10.43;6.50;;;14.20;99.90;;;12.43;90.14;100608.31;10422234;28;96712;-88
2023/05/13 18:35:33;;;;;;;8.57;5.67;;;14.10;99.90;;;12.36;88.76;100620.66;10408647;28;96536;-89
2023/05/13 18:40:36;;;;;;;9.63;7.40;;;14.10;99.90;;;12.30;90.60;100634.66;10413070;28;96664;-89
2023/05/13 18:45:39;;;;;;;9.95;5.97;;;14.00;99.90;;;12.20;89.51;100634.00;10388410;28;96632;-88
2023/05/13 18:50:42;;;;;;;8.33;6.30;;;13.90;99.90;;;12.15;91.16;100641.66;10406182;28;96546;-89
2023/05/13 18:55:45;;;;;;;6.83;5.57;;;13.80;99.90;;;12.08;92.42;100641.50;10395991;27;99115;-89
2023/05/13 19:00:48;;;;;;;8.83;6.60;;;13.80;99.90;;;11.99;93.28;100648.63;10384404;28;98623;-89
2023/05/13 19:05:52;;;;;;;7.93;6.00;;;13.70;99.90;;;11.91;94.05;100648.63;10405208;28;96495;-90
2023/05/13 19:10:55;;;;;;;8.40;6.13;;;13.60;99.90;;;11.82;94.63;100652.31;10395649;28;96610;-89
2023/05/13 19:15:59;;;;;;;9.47;5.87;;;13.50;99.90;;;11.71;95.02;100644.59;10381414;28;97007;-89
2023/05/13 19:21:02;;;;;;;8.87;7.10;;;13.40;99.90;;;11.67;95.45;100660.06;10394407;28;97979;-90
2023/05/13 19:26:05;;;;;;;9.20;6.40;;;13.30;99.90;;;11.59;96.04;100657.38;10404487;28;96702;-90
2023/05/13 19:31:09;;;;;;;9.17;6.77;;;13.30;99.90;;;11.53;96.43;100658.03;10392923;28;98330;-90
2023/05/13 19:36:13;;;;;;;11.13;7.67;;;13.20;99.90;;;11.44;96.53;100659.00;10384748;28;96815;-90
2023/05/13 19:41:16;;;;;;;9.90;6.47;;;13.10;99.90;;;11.39;96.87;100661.31;10400271;28;98185;-90
2023/05/13 19:46:19;;;;;;;9.63;6.93;;;13.00;99.90;;;11.33;96.85;100667.28;10410532;28;96816;-90
2023/05/13 19:51:21;;;;;;;18.80;15.83;;;13.00;99.90;;;11.31;97.13;100670.09;10417272;28;96815;-89
2023/05/13 19:56:25;;;;;;;36.97;33.07;;;13.00;99.90;;;11.28;97.55;100661.63;10384931;28;96774;-89
2023/05/13 20:01:30;;;;;;;28.77;23.00;;;13.00;99.90;;;11.27;97.81;100652.78;10386858;28;98309;-90
2023/05/13 20:06:34;;;;;;;28.07;22.03;;;12.90;99.90;;;11.23;97.79;100651.47;10385390;27;96936;-90
2023/05/13 20:11:37;;;;;;;18.27;16.03;;;12.90;99.90;;;11.15;97.30;100656.75;10389257;28;97405;-89
2023/05/13 20:16:40;;;;;;;12.20;10.07;;;12.80;99.90;;;11.04;97.04;100644.59;10395388;28;97573;-90
2023/05/13 20:21:43;;;;;;;11.30;8.97;;;12.70;99.90;;;10.96;96.78;100645.34;10398681;28;96946;-89
2023/05/13 20:26:46;;;;;;;11.87;9.07;;;12.60;99.90;;;10.84;96.62;100649.28;10402003;28;98010;-89
2023/05/13 20:31:49;;;;;;;9.83;8.00;;;12.50;99.90;;;10.77;96.67;100655.41;10406756;28;96676;-90
2023/05/13 20:36:52;;;;;;;13.27;9.50;;;12.40;99.90;;;10.69;97.34;100648.22;10387961;28;96559;-90
2023/05/13 20:41:56;;;;;;;8.33;6.60;;;12.30;99.90;;;10.61;97.78;100648.16;10393994;28;97722;-90
2023/05/13 20:46:59;;;;;;;7.77;5.93;;;12.30;99.90;;;10.50;97.78;100648.44;10406110;27;96675;-90